sensor_id;sensor_type;location;lat;lon;timestamp;temperature;humidity
69324;DHT22;56470;47.350;8.718;2024-01-07T00:01:48;5.31;78.55
69324;DHT22;56470;47.350;8.718;2024-01-07T00:04:25;5.32;78.79
69324;DHT22;56470;47.350;8.718;2024-01-07T00:07:09;5.35;79.25
69324;DHT22;56470;47.350;8.718;2024-01-07T00:09:45;5.39;78.79
69324;DHT22;56470;47.350;8.718;2024-01-07T00:12:10;5.35;78.79
69324;DHT22;56470;47.350;8.718;2024-01-07T00:14:51;5.36;78.96
69324;DHT22;56470;47.350;8.718;2024-01-07T00:17:19;5.38;78.82
69324;DHT22;56470;47.350;8.718;2024-01-07T00:19:47;5.38;78.66
69324;DHT22;56470;47.350;8.718;2024-01-07T00:22:15;5.38;78.48
69324;DHT22;56470;47.350;8.718;2024-01-07T00:25:05;5.32;78.22
69324;DHT22;56470;47.350;8.718;2024-01-07T00:27:31;5.36;78.74
69324;DHT22;56470;47.350;8.718;2024-01-07T00:29:59;5.38;78.56
69324;DHT22;56470;47.350;8.718;2024-01-07T00:32:35;5.34;78.60
69324;DHT22;56470;47.350;8.718;2024-01-07T00:35:04;5.30;78.73
69324;DHT22;56470;47.350;8.718;2024-01-07T00:37:39;5.27;78.71
69324;DHT22;56470;47.350;8.718;2024-01-07T00:40:13;5.31;79.22
69324;DHT22;56470;47.350;8.718;2024-01-07T00:42:42;5.35;78.77
69324;DHT22;56470;47.350;8.718;2024-01-07T00:45:08;5.31;78.89
69324;DHT22;56470;47.350;8.718;2024-01-07T00:47:34;5.31;78.90
69324;DHT22;56470;47.350;8.718;2024-01-07T00:49:59;5.31;79.05
69324;DHT22;56470;47.350;8.718;2024-01-07T00:52:29;5.31;78.98
69324;DHT22;56470;47.350;8.718;2024-01-07T00:54:57;5.30;78.93
69324;DHT22;56470;47.350;8.718;2024-01-07T00:57:29;5.25;78.86
69324;DHT22;56470;47.350;8.718;2024-01-07T01:00:04;5.30;79.18
69324;DHT22;56470;47.350;8.718;2024-01-07T01:02:33;5.28;79.14
69324;DHT22;56470;47.350;8.718;2024-01-07T01:04:58;5.30;78.79
69324;DHT22;56470;47.350;8.718;2024-01-07T01:07:24;5.27;79.14
69324;DHT22;56470;47.350;8.718;2024-01-07T01:09:49;5.28;79.17
69324;DHT22;56470;47.350;8.718;2024-01-07T01:12:17;5.30;79.10
69324;DHT22;56470;47.350;8.718;2024-01-07T01:14:43;5.31;78.92
69324;DHT22;56470;47.350;8.718;2024-01-07T01:17:10;5.30;78.88
69324;DHT22;56470;47.350;8.718;2024-01-07T01:19:56;5.28;79.19
69324;DHT22;56470;47.350;8.718;2024-01-07T01:22:24;5.28;79.40
69324;DHT22;56470;47.350;8.718;2024-01-07T01:24:50;5.28;79.17
69324;DHT22;56470;47.350;8.718;2024-01-07T01:27:16;5.32;79.39
69324;DHT22;56470;47.350;8.718;2024-01-07T01:29:41;5.32;79.26
69324;DHT22;56470;47.350;8.718;2024-01-07T01:32:10;5.32;79.86
69324;DHT22;56470;47.350;8.718;2024-01-07T01:34:45;5.32;79.47
69324;DHT22;56470;47.350;8.718;2024-01-07T01:37:11;5.31;78.85
69324;DHT22;56470;47.350;8.718;2024-01-07T01:39:40;5.24;79.25
69324;DHT22;56470;47.350;8.718;2024-01-07T01:42:06;5.23;79.51
69324;DHT22;56470;47.350;8.718;2024-01-07T01:44:31;5.25;80.19
69324;DHT22;56470;47.350;8.718;2024-01-07T01:46:59;5.27;80.10
69324;DHT22;56470;47.350;8.718;2024-01-07T01:49:26;5.28;79.77
69324;DHT22;56470;47.350;8.718;2024-01-07T01:51:52;5.27;79.57
69324;DHT22;56470;47.350;8.718;2024-01-07T01:54:21;5.25;79.47
69324;DHT22;56470;47.350;8.718;2024-01-07T01:56:47;5.24;79.38
69324;DHT22;56470;47.350;8.718;2024-01-07T01:59:14;5.21;79.66
69324;DHT22;56470;47.350;8.718;2024-01-07T02:01:40;5.17;79.25
69324;DHT22;56470;47.350;8.718;2024-01-07T02:04:06;5.18;80.23
69324;DHT22;56470;47.350;8.718;2024-01-07T02:06:31;5.20;80.20
69324;DHT22;56470;47.350;8.718;2024-01-07T02:08:57;5.25;80.07
69324;DHT22;56470;47.350;8.718;2024-01-07T02:11:22;5.24;79.83
69324;DHT22;56470;47.350;8.718;2024-01-07T02:13:49;5.28;79.34
69324;DHT22;56470;47.350;8.718;2024-01-07T02:16:15;5.25;79.38
69324;DHT22;56470;47.350;8.718;2024-01-07T02:18:41;5.23;79.47
69324;DHT22;56470;47.350;8.718;2024-01-07T02:21:12;5.27;79.73
69324;DHT22;56470;47.350;8.718;2024-01-07T02:23:46;5.28;79.39
69324;DHT22;56470;47.350;8.718;2024-01-07T02:26:11;5.27;79.92
69324;DHT22;56470;47.350;8.718;2024-01-07T02:28:43;5.27;79.42
69324;DHT22;56470;47.350;8.718;2024-01-07T02:31:12;5.28;79.33
69324;DHT22;56470;47.350;8.718;2024-01-07T02:33:38;5.28;79.86
69324;DHT22;56470;47.350;8.718;2024-01-07T02:36:03;5.27;79.47
69324;DHT22;56470;47.350;8.718;2024-01-07T02:38:29;5.27;79.49
69324;DHT22;56470;47.350;8.718;2024-01-07T02:41:00;5.25;79.42
69324;DHT22;56470;47.350;8.718;2024-01-07T02:43:28;5.21;79.55
69324;DHT22;56470;47.350;8.718;2024-01-07T02:45:53;5.24;79.55
69324;DHT22;56470;47.350;8.718;2024-01-07T02:48:19;5.25;79.88
69324;DHT22;56470;47.350;8.718;2024-01-07T02:50:44;5.27;79.61
69324;DHT22;56470;47.350;8.718;2024-01-07T02:53:10;5.27;79.64
69324;DHT22;56470;47.350;8.718;2024-01-07T02:55:37;5.30;79.84
69324;DHT22;56470;47.350;8.718;2024-01-07T02:58:02;5.31;79.32
69324;DHT22;56470;47.350;8.718;2024-01-07T03:00:28;5.27;79.25
69324;DHT22;56470;47.350;8.718;2024-01-07T03:02:55;5.28;79.17
69324;DHT22;56470;47.350;8.718;2024-01-07T03:05:23;5.25;79.26
69324;DHT22;56470;47.350;8.718;2024-01-07T03:07:49;5.27;79.43
69324;DHT22;56470;47.350;8.718;2024-01-07T03:10:15;5.28;79.70
69324;DHT22;56470;47.350;8.718;2024-01-07T03:12:40;5.28;79.27
69324;DHT22;56470;47.350;8.718;2024-01-07T03:15:06;5.28;79.14
69324;DHT22;56470;47.350;8.718;2024-01-07T03:17:33;5.27;79.16
69324;DHT22;56470;47.350;8.718;2024-01-07T03:19:58;5.28;79.17
69324;DHT22;56470;47.350;8.718;2024-01-07T03:22:24;5.25;79.08
69324;DHT22;56470;47.350;8.718;2024-01-07T03:24:49;5.23;78.72
69324;DHT22;56470;47.350;8.718;2024-01-07T03:27:14;5.18;78.90
69324;DHT22;56470;47.350;8.718;2024-01-07T03:29:40;5.17;78.89
69324;DHT22;56470;47.350;8.718;2024-01-07T03:32:10;5.17;79.23
69324;DHT22;56470;47.350;8.718;2024-01-07T03:34:38;5.15;78.81
69324;DHT22;56470;47.350;8.718;2024-01-07T03:37:03;5.13;78.72
69324;DHT22;56470;47.350;8.718;2024-01-07T03:39:32;5.11;78.92
69324;DHT22;56470;47.350;8.718;2024-01-07T03:41:57;5.10;78.72
69324;DHT22;56470;47.350;8.718;2024-01-07T03:44:23;5.10;78.73
69324;DHT22;56470;47.350;8.718;2024-01-07T03:46:48;5.08;78.82
69324;DHT22;56470;47.350;8.718;2024-01-07T03:49:14;5.06;78.72
69324;DHT22;56470;47.350;8.718;2024-01-07T03:51:39;5.11;78.82
69324;DHT22;56470;47.350;8.718;2024-01-07T03:54:05;5.14;79.40
69324;DHT22;56470;47.350;8.718;2024-01-07T03:56:33;5.13;78.94
69324;DHT22;56470;47.350;8.718;2024-01-07T03:58:59;5.18;79.59
69324;DHT22;56470;47.350;8.718;2024-01-07T04:01:27;5.20;79.38
69324;DHT22;56470;47.350;8.718;2024-01-07T04:03:52;5.21;79.12
69324;DHT22;56470;47.350;8.718;2024-01-07T04:06:18;5.20;79.07
69324;DHT22;56470;47.350;8.718;2024-01-07T04:08:46;5.21;79.14
69324;DHT22;56470;47.350;8.718;2024-01-07T04:11:11;5.23;78.99
69324;DHT22;56470;47.350;8.718;2024-01-07T04:13:52;5.21;79.18
69324;DHT22;56470;47.350;8.718;2024-01-07T04:16:18;5.21;78.75
69324;DHT22;56470;47.350;8.718;2024-01-07T04:18:45;5.23;79.18
69324;DHT22;56470;47.350;8.718;2024-01-07T04:21:12;5.23;78.99
69324;DHT22;56470;47.350;8.718;2024-01-07T04:23:41;5.25;79.19
69324;DHT22;56470;47.350;8.718;2024-01-07T04:26:08;5.21;78.91
69324;DHT22;56470;47.350;8.718;2024-01-07T04:28:34;5.23;79.06
69324;DHT22;56470;47.350;8.718;2024-01-07T04:30:59;5.24;79.07
69324;DHT22;56470;47.350;8.718;2024-01-07T04:33:25;5.24;79.15
69324;DHT22;56470;47.350;8.718;2024-01-07T04:35:50;5.25;79.33
69324;DHT22;56470;47.350;8.718;2024-01-07T04:38:26;5.27;79.03
69324;DHT22;56470;47.350;8.718;2024-01-07T04:40:52;5.25;78.91
69324;DHT22;56470;47.350;8.718;2024-01-07T04:43:18;5.25;78.99
69324;DHT22;56470;47.350;8.718;2024-01-07T04:45:44;5.24;79.03
69324;DHT22;56470;47.350;8.718;2024-01-07T04:48:09;5.24;79.37
69324;DHT22;56470;47.350;8.718;2024-01-07T04:50:35;5.25;78.90
69324;DHT22;56470;47.350;8.718;2024-01-07T04:53:00;5.21;79.03
69324;DHT22;56470;47.350;8.718;2024-01-07T04:55:26;5.21;78.79
69324;DHT22;56470;47.350;8.718;2024-01-07T04:57:54;5.21;79.06
69324;DHT22;56470;47.350;8.718;2024-01-07T05:00:20;5.20;78.95
69324;DHT22;56470;47.350;8.718;2024-01-07T05:02:53;5.15;78.73
69324;DHT22;56470;47.350;8.718;2024-01-07T05:05:19;5.18;79.02
69324;DHT22;56470;47.350;8.718;2024-01-07T05:07:47;5.17;79.03
69324;DHT22;56470;47.350;8.718;2024-01-07T05:10:12;5.10;78.67
69324;DHT22;56470;47.350;8.718;2024-01-07T05:12:38;5.08;78.96
69324;DHT22;56470;47.350;8.718;2024-01-07T05:15:07;5.08;78.78
69324;DHT22;56470;47.350;8.718;2024-01-07T05:17:38;5.04;78.70
69324;DHT22;56470;47.350;8.718;2024-01-07T05:20:04;4.98;78.73
69324;DHT22;56470;47.350;8.718;2024-01-07T05:22:31;4.96;78.70
69324;DHT22;56470;47.350;8.718;2024-01-07T05:25:00;4.94;78.82
69324;DHT22;56470;47.350;8.718;2024-01-07T05:27:25;4.94;78.93
69324;DHT22;56470;47.350;8.718;2024-01-07T05:29:51;4.91;78.92
69324;DHT22;56470;47.350;8.718;2024-01-07T05:32:19;4.89;78.91
69324;DHT22;56470;47.350;8.718;2024-01-07T05:34:47;4.90;79.02
69324;DHT22;56470;47.350;8.718;2024-01-07T05:37:23;4.87;79.12
69324;DHT22;56470;47.350;8.718;2024-01-07T05:39:50;4.87;79.02
69324;DHT22;56470;47.350;8.718;2024-01-07T05:42:16;4.87;79.16
69324;DHT22;56470;47.350;8.718;2024-01-07T05:44:48;4.86;78.93
69324;DHT22;56470;47.350;8.718;2024-01-07T05:47:14;4.83;79.09
69324;DHT22;56470;47.350;8.718;2024-01-07T05:49:42;4.87;79.12
69324;DHT22;56470;47.350;8.718;2024-01-07T05:52:10;4.84;79.09
69324;DHT22;56470;47.350;8.718;2024-01-07T05:54:35;4.83;79.00
69324;DHT22;56470;47.350;8.718;2024-01-07T05:57:00;4.86;79.19
69324;DHT22;56470;47.350;8.718;2024-01-07T05:59:28;4.83;78.84
69324;DHT22;56470;47.350;8.718;2024-01-07T06:02:01;4.89;79.35
69324;DHT22;56470;47.350;8.718;2024-01-07T06:04:29;4.87;79.07
69324;DHT22;56470;47.350;8.718;2024-01-07T06:06:57;4.86;79.24
69324;DHT22;56470;47.350;8.718;2024-01-07T06:09:25;4.86;79.22
69324;DHT22;56470;47.350;8.718;2024-01-07T06:11:53;4.86;79.40
69324;DHT22;56470;47.350;8.718;2024-01-07T06:14:19;4.84;79.24
69324;DHT22;56470;47.350;8.718;2024-01-07T06:16:50;4.87;79.62
69324;DHT22;56470;47.350;8.718;2024-01-07T06:19:16;4.86;79.54
69324;DHT22;56470;47.350;8.718;2024-01-07T06:21:42;4.86;79.39
69324;DHT22;56470;47.350;8.718;2024-01-07T06:24:11;4.87;79.37
69324;DHT22;56470;47.350;8.718;2024-01-07T06:26:36;4.84;79.31
69324;DHT22;56470;47.350;8.718;2024-01-07T06:29:02;4.83;79.69
69324;DHT22;56470;47.350;8.718;2024-01-07T06:31:35;4.83;79.52
69324;DHT22;56470;47.350;8.718;2024-01-07T06:34:02;4.86;80.08
69324;DHT22;56470;47.350;8.718;2024-01-07T06:36:28;4.87;79.53
69324;DHT22;56470;47.350;8.718;2024-01-07T06:38:55;4.84;79.85
69324;DHT22;56470;47.350;8.718;2024-01-07T06:41:21;4.86;79.50
69324;DHT22;56470;47.350;8.718;2024-01-07T06:43:46;4.81;79.37
69324;DHT22;56470;47.350;8.718;2024-01-07T06:46:31;4.80;79.26
69324;DHT22;56470;47.350;8.718;2024-01-07T06:49:10;4.77;79.42
69324;DHT22;56470;47.350;8.718;2024-01-07T06:51:40;4.75;79.35
69324;DHT22;56470;47.350;8.718;2024-01-07T06:54:08;4.73;79.63
69324;DHT22;56470;47.350;8.718;2024-01-07T06:56:34;4.69;79.44
69324;DHT22;56470;47.350;8.718;2024-01-07T06:58:59;4.59;79.75
69324;DHT22;56470;47.350;8.718;2024-01-07T07:01:43;4.66;80.03
69324;DHT22;56470;47.350;8.718;2024-01-07T07:07:06;4.70;79.83
69324;DHT22;56470;47.350;8.718;2024-01-07T07:09:39;4.69;79.67
69324;DHT22;56470;47.350;8.718;2024-01-07T07:15:08;4.72;79.92
69324;DHT22;56470;47.350;8.718;2024-01-07T07:17:36;4.76;79.38
69324;DHT22;56470;47.350;8.718;2024-01-07T07:20:01;4.73;79.89
69324;DHT22;56470;47.350;8.718;2024-01-07T07:22:27;4.75;79.80
69324;DHT22;56470;47.350;8.718;2024-01-07T07:24:52;4.73;79.78
69324;DHT22;56470;47.350;8.718;2024-01-07T07:27:18;4.70;79.70
69324;DHT22;56470;47.350;8.718;2024-01-07T07:29:43;4.73;80.02
69324;DHT22;56470;47.350;8.718;2024-01-07T07:32:09;4.75;79.71
69324;DHT22;56470;47.350;8.718;2024-01-07T07:34:34;4.70;79.58
69324;DHT22;56470;47.350;8.718;2024-01-07T07:36:59;4.72;79.84
69324;DHT22;56470;47.350;8.718;2024-01-07T07:39:25;4.73;79.92
69324;DHT22;56470;47.350;8.718;2024-01-07T07:41:50;4.69;79.70
69324;DHT22;56470;47.350;8.718;2024-01-07T07:44:16;4.69;79.85
69324;DHT22;56470;47.350;8.718;2024-01-07T07:46:41;4.72;79.63
69324;DHT22;56470;47.350;8.718;2024-01-07T07:49:09;4.69;79.52
69324;DHT22;56470;47.350;8.718;2024-01-07T07:51:36;4.70;79.60
69324;DHT22;56470;47.350;8.718;2024-01-07T07:54:01;4.69;79.74
69324;DHT22;56470;47.350;8.718;2024-01-07T07:56:28;4.68;79.77
69324;DHT22;56470;47.350;8.718;2024-01-07T07:58:56;4.72;79.73
69324;DHT22;56470;47.350;8.718;2024-01-07T08:01:26;4.70;79.80
69324;DHT22;56470;47.350;8.718;2024-01-07T08:03:52;4.70;79.58
69324;DHT22;56470;47.350;8.718;2024-01-07T08:06:17;4.68;79.71
69324;DHT22;56470;47.350;8.718;2024-01-07T08:08:50;4.68;80.15
69324;DHT22;56470;47.350;8.718;2024-01-07T08:11:20;4.68;80.09
69324;DHT22;56470;47.350;8.718;2024-01-07T08:13:47;4.69;79.66
69324;DHT22;56470;47.350;8.718;2024-01-07T08:16:16;4.65;79.58
69324;DHT22;56470;47.350;8.718;2024-01-07T08:18:46;4.66;79.62
69324;DHT22;56470;47.350;8.718;2024-01-07T08:21:11;4.66;79.68
69324;DHT22;56470;47.350;8.718;2024-01-07T08:29:38;4.70;79.86
69324;DHT22;56470;47.350;8.718;2024-01-07T08:32:09;4.75;79.83
69324;DHT22;56470;47.350;8.718;2024-01-07T08:34:39;4.76;79.65
69324;DHT22;56470;47.350;8.718;2024-01-07T08:37:07;4.79;80.16
69324;DHT22;56470;47.350;8.718;2024-01-07T08:39:34;4.80;79.66
69324;DHT22;56470;47.350;8.718;2024-01-07T08:42:02;4.81;79.50
69324;DHT22;56470;47.350;8.718;2024-01-07T08:44:29;4.86;79.64
69324;DHT22;56470;47.350;8.718;2024-01-07T08:47:00;4.90;79.63
69324;DHT22;56470;47.350;8.718;2024-01-07T08:49:42;4.91;79.89
69324;DHT22;56470;47.350;8.718;2024-01-07T08:52:08;4.93;79.47
69324;DHT22;56470;47.350;8.718;2024-01-07T08:54:36;4.93;79.49
69324;DHT22;56470;47.350;8.718;2024-01-07T08:57:02;4.94;79.29
69324;DHT22;56470;47.350;8.718;2024-01-07T08:59:27;4.94;79.40
69324;DHT22;56470;47.350;8.718;2024-01-07T09:01:52;4.97;79.38
69324;DHT22;56470;47.350;8.718;2024-01-07T09:04:18;5.00;79.67
69324;DHT22;56470;47.350;8.718;2024-01-07T09:06:44;5.06;79.53
69324;DHT22;56470;47.350;8.718;2024-01-07T09:09:12;5.00;79.36
69324;DHT22;56470;47.350;8.718;2024-01-07T09:11:38;5.07;79.52
69324;DHT22;56470;47.350;8.718;2024-01-07T09:14:03;5.04;79.22
69324;DHT22;56470;47.350;8.718;2024-01-07T09:16:29;5.06;79.17
69324;DHT22;56470;47.350;8.718;2024-01-07T09:18:57;5.06;79.07
69324;DHT22;56470;47.350;8.718;2024-01-07T09:21:22;5.08;79.25
69324;DHT22;56470;47.350;8.718;2024-01-07T09:23:51;5.10;79.42
69324;DHT22;56470;47.350;8.718;2024-01-07T09:26:16;5.11;79.12
69324;DHT22;56470;47.350;8.718;2024-01-07T09:28:53;5.11;79.27
69324;DHT22;56470;47.350;8.718;2024-01-07T09:32:04;5.13;79.48
69324;DHT22;56470;47.350;8.718;2024-01-07T10:13:49;5.34;78.85
69324;DHT22;56470;47.350;8.718;2024-01-07T10:16:20;5.31;78.85
69324;DHT22;56470;47.350;8.718;2024-01-07T10:18:45;5.32;78.96
69324;DHT22;56470;47.350;8.718;2024-01-07T10:21:10;5.35;78.89
69324;DHT22;56470;47.350;8.718;2024-01-07T10:23:36;5.39;79.05
69324;DHT22;56470;47.350;8.718;2024-01-07T10:40:43;5.48;78.65
69324;DHT22;56470;47.350;8.718;2024-01-07T10:43:15;5.59;78.94
69324;DHT22;56470;47.350;8.718;2024-01-07T10:49:30;5.62;78.27
69324;DHT22;56470;47.350;8.718;2024-01-07T10:52:17;5.65;78.29
69324;DHT22;56470;47.350;8.718;2024-01-07T10:54:53;5.67;78.32
69324;DHT22;56470;47.350;8.718;2024-01-07T11:03:17;5.62;77.80
69324;DHT22;56470;47.350;8.718;2024-01-07T11:09:31;5.59;78.14
69324;DHT22;56470;47.350;8.718;2024-01-07T11:11:59;5.62;77.92
69324;DHT22;56470;47.350;8.718;2024-01-07T11:14:36;5.56;77.91
69324;DHT22;56470;47.350;8.718;2024-01-07T11:17:03;5.60;78.42
69324;DHT22;56470;47.350;8.718;2024-01-07T11:19:29;5.60;78.35
69324;DHT22;56470;47.350;8.718;2024-01-07T11:22:22;5.60;78.42
69324;DHT22;56470;47.350;8.718;2024-01-07T11:25:00;5.62;78.40
69324;DHT22;56470;47.350;8.718;2024-01-07T12:20:00;5.48;78.53
69324;DHT22;56470;47.350;8.718;2024-01-07T12:25:49;5.51;77.85
69324;DHT22;56470;47.350;8.718;2024-01-07T12:28:16;5.49;78.25
69324;DHT22;56470;47.350;8.718;2024-01-07T12:30:51;5.46;78.26
69324;DHT22;56470;47.350;8.718;2024-01-07T12:33:19;5.46;78.03
69324;DHT22;56470;47.350;8.718;2024-01-07T12:35:51;5.46;78.27
69324;DHT22;56470;47.350;8.718;2024-01-07T12:38:46;5.48;78.29
69324;DHT22;56470;47.350;8.718;2024-01-07T12:41:15;5.46;78.22
69324;DHT22;56470;47.350;8.718;2024-01-07T12:43:46;5.43;78.34
69324;DHT22;56470;47.350;8.718;2024-01-07T12:46:18;5.39;77.95
69324;DHT22;56470;47.350;8.718;2024-01-07T12:48:49;5.38;78.14
69324;DHT22;56470;47.350;8.718;2024-01-07T12:51:15;5.38;78.20
69324;DHT22;56470;47.350;8.718;2024-01-07T12:53:41;5.39;78.36
69324;DHT22;56470;47.350;8.718;2024-01-07T12:56:09;5.31;78.05
69324;DHT22;56470;47.350;8.718;2024-01-07T12:58:34;5.31;78.27
69324;DHT22;56470;47.350;8.718;2024-01-07T13:01:00;5.25;78.14
69324;DHT22;56470;47.350;8.718;2024-01-07T13:03:26;5.24;78.31
69324;DHT22;56470;47.350;8.718;2024-01-07T13:05:51;5.23;78.49
69324;DHT22;56470;47.350;8.718;2024-01-07T13:08:20;5.25;78.69
69324;DHT22;56470;47.350;8.718;2024-01-07T13:10:51;5.23;78.55
69324;DHT22;56470;47.350;8.718;2024-01-07T13:13:17;5.20;78.56
69324;DHT22;56470;47.350;8.718;2024-01-07T13:15:43;5.17;78.54
69324;DHT22;56470;47.350;8.718;2024-01-07T13:18:11;5.18;78.58
69324;DHT22;56470;47.350;8.718;2024-01-07T13:20:39;5.18;78.58
69324;DHT22;56470;47.350;8.718;2024-01-07T13:23:05;5.17;78.47
69324;DHT22;56470;47.350;8.718;2024-01-07T13:25:31;5.13;78.33
69324;DHT22;56470;47.350;8.718;2024-01-07T13:27:56;5.08;78.39
69324;DHT22;56470;47.350;8.718;2024-01-07T13:30:25;5.03;78.55
69324;DHT22;56470;47.350;8.718;2024-01-07T13:32:50;5.01;78.56
69324;DHT22;56470;47.350;8.718;2024-01-07T13:35:16;4.97;78.63
69324;DHT22;56470;47.350;8.718;2024-01-07T13:41:36;5.00;78.88
69324;DHT22;56470;47.350;8.718;2024-01-07T13:44:07;5.01;79.01
69324;DHT22;56470;47.350;8.718;2024-01-07T13:47:37;5.03;79.36
69324;DHT22;56470;47.350;8.718;2024-01-07T13:53:04;5.10;78.62
69324;DHT22;56470;47.350;8.718;2024-01-07T13:58:44;5.00;78.75
69324;DHT22;56470;47.350;8.718;2024-01-07T14:05:20;4.96;78.56
69324;DHT22;56470;47.350;8.718;2024-01-07T14:08:22;4.91;78.59
69324;DHT22;56470;47.350;8.718;2024-01-07T14:11:22;4.86;78.05
69324;DHT22;56470;47.350;8.718;2024-01-07T14:14:09;4.68;78.47
69324;DHT22;56470;47.350;8.718;2024-01-07T14:16:35;4.65;78.91
69324;DHT22;56470;47.350;8.718;2024-01-07T14:23:08;4.70;78.41
69324;DHT22;56470;47.350;8.718;2024-01-07T14:25:35;4.65;78.86
69324;DHT22;56470;47.350;8.718;2024-01-07T14:41:46;4.34;78.81
69324;DHT22;56470;47.350;8.718;2024-01-07T14:44:29;4.35;78.56
69324;DHT22;56470;47.350;8.718;2024-01-07T14:47:01;4.35;78.77
69324;DHT22;56470;47.350;8.718;2024-01-07T14:50:08;4.31;78.37
69324;DHT22;56470;47.350;8.718;2024-01-07T14:56:25;4.38;78.13
69324;DHT22;56470;47.350;8.718;2024-01-07T14:58:52;4.38;78.24
69324;DHT22;56470;47.350;8.718;2024-01-07T15:01:17;4.42;78.44
69324;DHT22;56470;47.350;8.718;2024-01-07T15:03:44;4.45;78.48
69324;DHT22;56470;47.350;8.718;2024-01-07T15:06:12;4.44;78.44
69324;DHT22;56470;47.350;8.718;2024-01-07T15:08:53;4.42;78.34
69324;DHT22;56470;47.350;8.718;2024-01-07T15:11:19;4.48;78.41
69324;DHT22;56470;47.350;8.718;2024-01-07T15:13:48;4.44;78.24
69324;DHT22;56470;47.350;8.718;2024-01-07T15:16:24;4.40;78.13
69324;DHT22;56470;47.350;8.718;2024-01-07T15:19:22;4.27;77.60
69324;DHT22;56470;47.350;8.718;2024-01-07T15:24:57;4.21;78.14
69324;DHT22;56470;47.350;8.718;2024-01-07T15:27:27;4.17;77.77
69324;DHT22;56470;47.350;8.718;2024-01-07T15:30:17;4.17;77.90
69324;DHT22;56470;47.350;8.718;2024-01-07T15:44:11;3.93;78.18
69324;DHT22;56470;47.350;8.718;2024-01-07T15:51:03;3.97;78.30
69324;DHT22;56470;47.350;8.718;2024-01-07T15:57:16;3.99;77.80
69324;DHT22;56470;47.350;8.718;2024-01-07T16:00:36;3.75;78.11
69324;DHT22;56470;47.350;8.718;2024-01-07T16:10:41;3.73;78.33
69324;DHT22;56470;47.350;8.718;2024-01-07T16:14:04;3.76;78.18
69324;DHT22;56470;47.350;8.718;2024-01-07T16:17:30;3.79;78.27
69324;DHT22;56470;47.350;8.718;2024-01-07T16:31:02;3.85;78.66
69324;DHT22;56470;47.350;8.718;2024-01-07T17:40:29;3.46;79.02
69324;DHT22;56470;47.350;8.718;2024-01-07T18:12:59;3.00;78.74
69324;DHT22;56470;47.350;8.718;2024-01-07T18:15:30;2.96;79.02
69324;DHT22;56470;47.350;8.718;2024-01-07T18:24:39;2.89;79.17
69324;DHT22;56470;47.350;8.718;2024-01-07T18:53:05;2.71;78.69
69324;DHT22;56470;47.350;8.718;2024-01-07T18:56:04;2.68;78.90
69324;DHT22;56470;47.350;8.718;2024-01-07T19:16:51;2.51;79.64
69324;DHT22;56470;47.350;8.718;2024-01-07T19:19:16;2.44;79.90
69324;DHT22;56470;47.350;8.718;2024-01-07T19:21:50;2.49;79.98
69324;DHT22;56470;47.350;8.718;2024-01-07T20:44:43;1.81;80.44
69324;DHT22;56470;47.350;8.718;2024-01-07T20:58:17;1.78;80.61
69324;DHT22;56470;47.350;8.718;2024-01-07T21:00:57;1.75;80.46
